sensor_id;sensor_type;location;lat;lon;timestamp;temperature;humidity
4451;DHT22;2238;50.180;9.230;2022-07-23T00:04:38;22.30;99.90
4451;DHT22;2238;50.180;9.230;2022-07-23T00:07:39;22.10;99.90
4451;DHT22;2238;50.180;9.230;2022-07-23T00:22:54;21.20;99.90
4451;DHT22;2238;50.180;9.230;2022-07-23T00:25:55;21.20;99.90
4451;DHT22;2238;50.180;9.230;2022-07-23T00:34:57;21.20;99.90
4451;DHT22;2238;50.180;9.230;2022-07-23T00:37:59;21.30;99.90
4451;DHT22;2238;50.180;9.230;2022-07-23T00:40:59;21.40;99.90
4451;DHT22;2238;50.180;9.230;2022-07-23T00:44:22;21.50;99.90
4451;DHT22;2238;50.180;9.230;2022-07-23T00:50:24;21.20;99.90
4451;DHT22;2238;50.180;9.230;2022-07-23T00:53:25;21.20;99.90
4451;DHT22;2238;50.180;9.230;2022-07-23T00:59:27;21.80;99.90
4451;DHT22;2238;50.180;9.230;2022-07-23T01:02:27;21.80;99.90
4451;DHT22;2238;50.180;9.230;2022-07-23T01:05:28;21.90;99.90
4451;DHT22;2238;50.180;9.230;2022-07-23T01:08:29;21.80;99.90
4451;DHT22;2238;50.180;9.230;2022-07-23T01:11:33;21.80;99.90
4451;DHT22;2238;50.180;9.230;2022-07-23T01:14:34;21.70;99.90
4451;DHT22;2238;50.180;9.230;2022-07-23T01:17:34;21.40;99.90
4451;DHT22;2238;50.180;9.230;2022-07-23T01:20:35;21.20;99.90
4451;DHT22;2238;50.180;9.230;2022-07-23T01:32:39;20.70;99.90
4451;DHT22;2238;50.180;9.230;2022-07-23T01:41:42;20.60;99.90
4451;DHT22;2238;50.180;9.230;2022-07-23T01:47:44;20.60;99.90
4451;DHT22;2238;50.180;9.230;2022-07-23T01:50:46;20.50;99.90
4451;DHT22;2238;50.180;9.230;2022-07-23T01:53:47;20.10;99.90
4451;DHT22;2238;50.180;9.230;2022-07-23T01:56:47;20.30;99.90
4451;DHT22;2238;50.180;9.230;2022-07-23T01:59:48;20.10;99.90
4451;DHT22;2238;50.180;9.230;2022-07-23T02:02:49;20.00;99.90
4451;DHT22;2238;50.180;9.230;2022-07-23T02:23:55;20.50;99.90
4451;DHT22;2238;50.180;9.230;2022-07-23T02:32:58;19.80;99.90
4451;DHT22;2238;50.180;9.230;2022-07-23T02:45:02;19.50;99.90
4451;DHT22;2238;50.180;9.230;2022-07-23T02:57:06;19.90;99.90
4451;DHT22;2238;50.180;9.230;2022-07-23T03:00:08;20.00;99.90
4451;DHT22;2238;50.180;9.230;2022-07-23T03:09:11;19.90;99.90
4451;DHT22;2238;50.180;9.230;2022-07-23T03:21:14;19.20;99.90
4451;DHT22;2238;50.180;9.230;2022-07-23T03:33:20;19.20;99.90
4451;DHT22;2238;50.180;9.230;2022-07-23T03:48:25;19.60;99.90
4451;DHT22;2238;50.180;9.230;2022-07-23T04:06:30;19.50;99.90
4451;DHT22;2238;50.180;9.230;2022-07-23T04:18:34;19.70;99.90
4451;DHT22;2238;50.180;9.230;2022-07-23T04:21:34;19.70;99.90
4451;DHT22;2238;50.180;9.230;2022-07-23T04:24:35;19.70;99.90
4451;DHT22;2238;50.180;9.230;2022-07-23T04:36:39;20.00;99.90
4451;DHT22;2238;50.180;9.230;2022-07-23T04:39:40;20.00;99.90
4451;DHT22;2238;50.180;9.230;2022-07-23T04:42:40;20.10;99.90
4451;DHT22;2238;50.180;9.230;2022-07-23T04:45:41;19.80;99.90
4451;DHT22;2238;50.180;9.230;2022-07-23T04:48:41;19.70;99.90
4451;DHT22;2238;50.180;9.230;2022-07-23T04:54:43;19.60;99.90
4451;DHT22;2238;50.180;9.230;2022-07-23T05:12:50;19.60;99.90
4451;DHT22;2238;50.180;9.230;2022-07-23T05:30:57;20.10;99.90
4451;DHT22;2238;50.180;9.230;2022-07-23T05:40:04;19.80;99.90
4451;DHT22;2238;50.180;9.230;2022-07-23T06:01:17;19.70;99.90
4451;DHT22;2238;50.180;9.230;2022-07-23T06:07:19;19.50;99.90
4451;DHT22;2238;50.180;9.230;2022-07-23T06:28:26;19.80;99.90
4451;DHT22;2238;50.180;9.230;2022-07-23T06:37:29;20.00;99.90
4451;DHT22;2238;50.180;9.230;2022-07-23T06:40:29;20.30;99.90
4451;DHT22;2238;50.180;9.230;2022-07-23T06:43:31;20.30;99.90
4451;DHT22;2238;50.180;9.230;2022-07-23T06:52:34;20.80;99.90
4451;DHT22;2238;50.180;9.230;2022-07-23T06:55:34;20.90;99.90
4451;DHT22;2238;50.180;9.230;2022-07-23T07:01:39;20.60;99.90
4451;DHT22;2238;50.180;9.230;2022-07-23T07:10:42;20.70;99.90
4451;DHT22;2238;50.180;9.230;2022-07-23T07:34:50;21.50;99.90
4451;DHT22;2238;50.180;9.230;2022-07-23T07:43:53;21.60;99.90
4451;DHT22;2238;50.180;9.230;2022-07-23T07:49:54;21.70;99.90
4451;DHT22;2238;50.180;9.230;2022-07-23T07:52:56;21.90;99.90
4451;DHT22;2238;50.180;9.230;2022-07-23T07:58:58;21.90;99.90
4451;DHT22;2238;50.180;9.230;2022-07-23T08:01:58;21.90;99.90
4451;DHT22;2238;50.180;9.230;2022-07-23T08:08:00;22.10;99.90
4451;DHT22;2238;50.180;9.230;2022-07-23T08:14:02;21.90;99.90
4451;DHT22;2238;50.180;9.230;2022-07-23T08:20:05;22.70;99.90
4451;DHT22;2238;50.180;9.230;2022-07-23T08:23:07;22.40;99.90
4451;DHT22;2238;50.180;9.230;2022-07-23T08:26:08;22.60;99.90
4451;DHT22;2238;50.180;9.230;2022-07-23T08:29:09;23.00;99.90
4451;DHT22;2238;50.180;9.230;2022-07-23T08:35:11;23.20;99.90
4451;DHT22;2238;50.180;9.230;2022-07-23T08:38:12;23.70;99.90
4451;DHT22;2238;50.180;9.230;2022-07-23T08:41:14;23.90;99.90
4451;DHT22;2238;50.180;9.230;2022-07-23T08:44:16;23.70;99.90
4451;DHT22;2238;50.180;9.230;2022-07-23T08:47:17;23.70;99.90
4451;DHT22;2238;50.180;9.230;2022-07-23T08:53:20;23.50;99.90
4451;DHT22;2238;50.180;9.230;2022-07-23T09:05:24;23.40;99.90
4451;DHT22;2238;50.180;9.230;2022-07-23T09:08:33;23.70;99.90
4451;DHT22;2238;50.180;9.230;2022-07-23T09:14:43;24.00;99.90
4451;DHT22;2238;50.180;9.230;2022-07-23T09:17:45;23.50;99.90
4451;DHT22;2238;50.180;9.230;2022-07-23T09:23:52;23.70;99.90
4451;DHT22;2238;50.180;9.230;2022-07-23T09:26:53;24.10;99.90
4451;DHT22;2238;50.180;9.230;2022-07-23T09:29:56;24.40;99.90
4451;DHT22;2238;50.180;9.230;2022-07-23T09:36:08;24.10;99.90
4451;DHT22;2238;50.180;9.230;2022-07-23T09:39:11;24.60;99.90
4451;DHT22;2238;50.180;9.230;2022-07-23T09:42:23;25.20;99.90
4451;DHT22;2238;50.180;9.230;2022-07-23T09:45:24;24.80;99.90
4451;DHT22;2238;50.180;9.230;2022-07-23T09:54:32;25.20;99.90
4451;DHT22;2238;50.180;9.230;2022-07-23T09:57:34;25.30;99.90
4451;DHT22;2238;50.180;9.230;2022-07-23T10:03:37;25.30;99.90
4451;DHT22;2238;50.180;9.230;2022-07-23T10:06:39;25.80;99.90
4451;DHT22;2238;50.180;9.230;2022-07-23T10:09:41;25.70;99.90
4451;DHT22;2238;50.180;9.230;2022-07-23T10:12:44;25.70;99.90
4451;DHT22;2238;50.180;9.230;2022-07-23T10:36:53;26.40;99.90
4451;DHT22;2238;50.180;9.230;2022-07-23T10:39:32;26.40;99.90
4451;DHT22;2238;50.180;9.230;2022-07-23T10:42:34;26.70;99.90
4451;DHT22;2238;50.180;9.230;2022-07-23T10:45:37;27.00;99.90
4451;DHT22;2238;50.180;9.230;2022-07-23T10:48:38;26.80;99.90
4451;DHT22;2238;50.180;9.230;2022-07-23T10:51:38;26.60;99.90
4451;DHT22;2238;50.180;9.230;2022-07-23T10:54:44;26.70;99.90
4451;DHT22;2238;50.180;9.230;2022-07-23T10:57:51;27.30;99.90
4451;DHT22;2238;50.180;9.230;2022-07-23T11:00:51;27.50;99.90
4451;DHT22;2238;50.180;9.230;2022-07-23T11:03:56;26.60;99.90
4451;DHT22;2238;50.180;9.230;2022-07-23T11:09:58;27.10;99.90
4451;DHT22;2238;50.180;9.230;2022-07-23T11:16:25;27.50;99.90
4451;DHT22;2238;50.180;9.230;2022-07-23T11:19:26;28.00;99.90
4451;DHT22;2238;50.180;9.230;2022-07-23T11:22:36;27.80;99.90
4451;DHT22;2238;50.180;9.230;2022-07-23T11:25:38;28.00;99.90
4451;DHT22;2238;50.180;9.230;2022-07-23T11:28:39;28.00;99.90
4451;DHT22;2238;50.180;9.230;2022-07-23T11:31:52;28.20;99.90
4451;DHT22;2238;50.180;9.230;2022-07-23T11:34:53;27.90;99.90
4451;DHT22;2238;50.180;9.230;2022-07-23T11:38:02;28.40;99.90
4451;DHT22;2238;50.180;9.230;2022-07-23T11:41:03;28.60;99.90
4451;DHT22;2238;50.180;9.230;2022-07-23T11:44:04;28.60;99.90
4451;DHT22;2238;50.180;9.230;2022-07-23T11:47:11;28.50;99.90
4451;DHT22;2238;50.180;9.230;2022-07-23T11:50:14;28.40;99.90
4451;DHT22;2238;50.180;9.230;2022-07-23T11:53:26;28.50;99.90
4451;DHT22;2238;50.180;9.230;2022-07-23T11:56:26;28.30;99.90
4451;DHT22;2238;50.180;9.230;2022-07-23T11:59:31;28.30;99.90
4451;DHT22;2238;50.180;9.230;2022-07-23T12:02:31;28.70;99.90
4451;DHT22;2238;50.180;9.230;2022-07-23T12:05:35;29.00;99.90
4451;DHT22;2238;50.180;9.230;2022-07-23T12:08:41;28.20;99.90
4451;DHT22;2238;50.180;9.230;2022-07-23T12:12:01;27.90;99.90
4451;DHT22;2238;50.180;9.230;2022-07-23T12:15:04;27.80;99.90
4451;DHT22;2238;50.180;9.230;2022-07-23T12:18:07;28.20;99.90
4451;DHT22;2238;50.180;9.230;2022-07-23T12:21:07;28.50;99.90
4451;DHT22;2238;50.180;9.230;2022-07-23T12:24:08;28.60;99.90
4451;DHT22;2238;50.180;9.230;2022-07-23T12:27:10;28.80;99.90
4451;DHT22;2238;50.180;9.230;2022-07-23T12:30:24;28.40;99.90
4451;DHT22;2238;50.180;9.230;2022-07-23T12:33:39;28.50;99.90
4451;DHT22;2238;50.180;9.230;2022-07-23T12:36:40;28.10;99.90
4451;DHT22;2238;50.180;9.230;2022-07-23T12:39:41;28.00;99.90
4451;DHT22;2238;50.180;9.230;2022-07-23T12:42:42;27.70;99.90
4451;DHT22;2238;50.180;9.230;2022-07-23T12:48:53;28.00;99.90
4451;DHT22;2238;50.180;9.230;2022-07-23T12:51:54;27.50;99.90
4451;DHT22;2238;50.180;9.230;2022-07-23T12:54:54;27.60;99.90
4451;DHT22;2238;50.180;9.230;2022-07-23T12:58:04;28.10;99.90
4451;DHT22;2238;50.180;9.230;2022-07-23T13:01:06;28.20;99.90
4451;DHT22;2238;50.180;9.230;2022-07-23T13:04:13;27.90;99.90
4451;DHT22;2238;50.180;9.230;2022-07-23T13:07:14;27.80;99.90
4451;DHT22;2238;50.180;9.230;2022-07-23T13:10:14;28.00;99.90
4451;DHT22;2238;50.180;9.230;2022-07-23T13:13:15;28.20;99.90
4451;DHT22;2238;50.180;9.230;2022-07-23T13:16:16;28.00;99.90
4451;DHT22;2238;50.180;9.230;2022-07-23T13:19:17;28.70;99.90
4451;DHT22;2238;50.180;9.230;2022-07-23T13:22:18;28.50;99.90
4451;DHT22;2238;50.180;9.230;2022-07-23T13:25:18;28.00;99.90
4451;DHT22;2238;50.180;9.230;2022-07-23T13:28:20;27.70;99.90
4451;DHT22;2238;50.180;9.230;2022-07-23T13:31:21;27.70;99.90
4451;DHT22;2238;50.180;9.230;2022-07-23T13:34:22;27.90;99.90
4451;DHT22;2238;50.180;9.230;2022-07-23T13:37:23;27.80;99.90
4451;DHT22;2238;50.180;9.230;2022-07-23T13:40:23;28.00;99.90
4451;DHT22;2238;50.180;9.230;2022-07-23T13:43:25;27.90;99.90
4451;DHT22;2238;50.180;9.230;2022-07-23T13:46:27;28.30;99.90
4451;DHT22;2238;50.180;9.230;2022-07-23T13:49:28;28.40;99.90
4451;DHT22;2238;50.180;9.230;2022-07-23T13:52:28;28.30;99.90
4451;DHT22;2238;50.180;9.230;2022-07-23T13:55:29;28.30;99.90
4451;DHT22;2238;50.180;9.230;2022-07-23T13:58:30;28.50;99.90
4451;DHT22;2238;50.180;9.230;2022-07-23T14:01:31;28.60;99.90
4451;DHT22;2238;50.180;9.230;2022-07-23T14:04:31;28.50;99.90
4451;DHT22;2238;50.180;9.230;2022-07-23T14:07:34;28.60;99.90
4451;DHT22;2238;50.180;9.230;2022-07-23T14:10:36;28.40;99.90
4451;DHT22;2238;50.180;9.230;2022-07-23T14:13:37;28.20;99.90
4451;DHT22;2238;50.180;9.230;2022-07-23T14:16:37;28.70;99.90
4451;DHT22;2238;50.180;9.230;2022-07-23T14:19:38;28.10;99.90
4451;DHT22;2238;50.180;9.230;2022-07-23T14:22:39;28.20;99.90
4451;DHT22;2238;50.180;9.230;2022-07-23T14:25:40;28.20;99.90
4451;DHT22;2238;50.180;9.230;2022-07-23T14:28:42;28.40;99.90
4451;DHT22;2238;50.180;9.230;2022-07-23T14:31:42;28.60;99.90
4451;DHT22;2238;50.180;9.230;2022-07-23T14:34:43;28.40;99.90
4451;DHT22;2238;50.180;9.230;2022-07-23T14:37:44;28.70;99.90
4451;DHT22;2238;50.180;9.230;2022-07-23T14:40:44;28.80;99.90
4451;DHT22;2238;50.180;9.230;2022-07-23T14:43:45;28.50;99.90
4451;DHT22;2238;50.180;9.230;2022-07-23T14:46:46;28.50;99.90
4451;DHT22;2238;50.180;9.230;2022-07-23T14:49:46;28.50;99.90
4451;DHT22;2238;50.180;9.230;2022-07-23T14:52:47;28.20;99.90
4451;DHT22;2238;50.180;9.230;2022-07-23T14:55:47;28.50;99.90
4451;DHT22;2238;50.180;9.230;2022-07-23T14:58:48;28.20;99.90
4451;DHT22;2238;50.180;9.230;2022-07-23T15:01:50;28.20;99.90
4451;DHT22;2238;50.180;9.230;2022-07-23T15:04:51;28.30;99.90
4451;DHT22;2238;50.180;9.230;2022-07-23T15:07:52;28.00;99.90
4451;DHT22;2238;50.180;9.230;2022-07-23T15:10:52;27.90;99.90
4451;DHT22;2238;50.180;9.230;2022-07-23T15:13:54;28.20;99.90
4451;DHT22;2238;50.180;9.230;2022-07-23T15:19:56;28.30;99.90
4451;DHT22;2238;50.180;9.230;2022-07-23T15:22:57;28.40;99.90
4451;DHT22;2238;50.180;9.230;2022-07-23T15:25:58;28.50;99.90
4451;DHT22;2238;50.180;9.230;2022-07-23T15:29:00;28.60;99.90
4451;DHT22;2238;50.180;9.230;2022-07-23T15:32:03;28.60;99.90
4451;DHT22;2238;50.180;9.230;2022-07-23T15:35:04;28.40;99.90
4451;DHT22;2238;50.180;9.230;2022-07-23T15:38:07;28.00;99.90
4451;DHT22;2238;50.180;9.230;2022-07-23T15:41:07;28.20;99.90
4451;DHT22;2238;50.180;9.230;2022-07-23T15:44:08;28.20;99.90
4451;DHT22;2238;50.180;9.230;2022-07-23T15:47:15;28.20;99.90
4451;DHT22;2238;50.180;9.230;2022-07-23T15:50:16;28.20;99.90
4451;DHT22;2238;50.180;9.230;2022-07-23T15:53:17;28.00;99.90
4451;DHT22;2238;50.180;9.230;2022-07-23T15:56:17;28.10;99.90
4451;DHT22;2238;50.180;9.230;2022-07-23T16:02:19;28.20;99.90
4451;DHT22;2238;50.180;9.230;2022-07-23T16:08:21;28.00;99.90
4451;DHT22;2238;50.180;9.230;2022-07-23T16:14:24;28.20;99.90
4451;DHT22;2238;50.180;9.230;2022-07-23T16:20:25;26.80;99.90
4451;DHT22;2238;50.180;9.230;2022-07-23T16:23:27;28.00;99.90
4451;DHT22;2238;50.180;9.230;2022-07-23T16:26:28;27.70;99.90
4451;DHT22;2238;50.180;9.230;2022-07-23T16:29:28;27.70;99.90
4451;DHT22;2238;50.180;9.230;2022-07-23T16:32:31;27.80;99.90
4451;DHT22;2238;50.180;9.230;2022-07-23T16:35:31;27.80;99.90
4451;DHT22;2238;50.180;9.230;2022-07-23T16:38:38;27.80;99.90
4451;DHT22;2238;50.180;9.230;2022-07-23T16:50:44;27.60;99.90
4451;DHT22;2238;50.180;9.230;2022-07-23T16:53:45;27.70;99.90
4451;DHT22;2238;50.180;9.230;2022-07-23T16:56:47;27.70;99.90
4451;DHT22;2238;50.180;9.230;2022-07-23T16:59:47;27.80;99.90
4451;DHT22;2238;50.180;9.230;2022-07-23T17:02:48;27.50;99.90
4451;DHT22;2238;50.180;9.230;2022-07-23T17:05:50;27.60;99.90
4451;DHT22;2238;50.180;9.230;2022-07-23T17:08:51;27.70;99.90
4451;DHT22;2238;50.180;9.230;2022-07-23T17:11:52;27.60;99.90
4451;DHT22;2238;50.180;9.230;2022-07-23T17:14:52;27.60;99.90
4451;DHT22;2238;50.180;9.230;2022-07-23T17:17:53;27.60;99.90
4451;DHT22;2238;50.180;9.230;2022-07-23T17:20:55;27.60;99.90
4451;DHT22;2238;50.180;9.230;2022-07-23T17:23:55;27.70;99.90
4451;DHT22;2238;50.180;9.230;2022-07-23T17:26:56;27.40;99.90
4451;DHT22;2238;50.180;9.230;2022-07-23T17:29:57;27.20;99.90
4451;DHT22;2238;50.180;9.230;2022-07-23T17:32:57;27.20;99.90
4451;DHT22;2238;50.180;9.230;2022-07-23T17:35:58;27.10;99.90
4451;DHT22;2238;50.180;9.230;2022-07-23T17:38:59;27.10;99.90
4451;DHT22;2238;50.180;9.230;2022-07-23T17:41:59;27.20;99.90
4451;DHT22;2238;50.180;9.230;2022-07-23T17:45:00;27.10;99.90
4451;DHT22;2238;50.180;9.230;2022-07-23T17:48:00;27.10;99.90
4451;DHT22;2238;50.180;9.230;2022-07-23T17:51:12;26.90;99.90
4451;DHT22;2238;50.180;9.230;2022-07-23T17:54:13;26.90;99.90
4451;DHT22;2238;50.180;9.230;2022-07-23T17:57:14;27.00;99.90
4451;DHT22;2238;50.180;9.230;2022-07-23T18:00:17;26.90;99.90
4451;DHT22;2238;50.180;9.230;2022-07-23T18:03:19;26.90;99.90
4451;DHT22;2238;50.180;9.230;2022-07-23T18:06:20;26.90;99.90
4451;DHT22;2238;50.180;9.230;2022-07-23T18:09:21;26.80;99.90
4451;DHT22;2238;50.180;9.230;2022-07-23T18:12:21;26.90;99.90
4451;DHT22;2238;50.180;9.230;2022-07-23T18:15:23;26.90;99.90
4451;DHT22;2238;50.180;9.230;2022-07-23T18:18:29;26.90;99.90
4451;DHT22;2238;50.180;9.230;2022-07-23T18:21:31;26.70;99.90
4451;DHT22;2238;50.180;9.230;2022-07-23T18:24:32;26.60;99.90
4451;DHT22;2238;50.180;9.230;2022-07-23T18:27:32;26.60;99.90
4451;DHT22;2238;50.180;9.230;2022-07-23T18:30:36;26.50;99.90
4451;DHT22;2238;50.180;9.230;2022-07-23T18:33:36;26.30;99.90
4451;DHT22;2238;50.180;9.230;2022-07-23T18:36:37;26.30;99.90
4451;DHT22;2238;50.180;9.230;2022-07-23T18:39:40;26.40;99.90
4451;DHT22;2238;50.180;9.230;2022-07-23T18:42:43;26.30;99.90
4451;DHT22;2238;50.180;9.230;2022-07-23T18:45:44;26.20;99.90
4451;DHT22;2238;50.180;9.230;2022-07-23T18:48:45;26.40;99.90
4451;DHT22;2238;50.180;9.230;2022-07-23T18:51:46;26.00;99.90
4451;DHT22;2238;50.180;9.230;2022-07-23T18:54:48;26.20;99.90
4451;DHT22;2238;50.180;9.230;2022-07-23T18:57:49;26.30;99.90
4451;DHT22;2238;50.180;9.230;2022-07-23T19:00:49;26.20;99.90
4451;DHT22;2238;50.180;9.230;2022-07-23T19:03:50;26.20;99.90
4451;DHT22;2238;50.180;9.230;2022-07-23T19:06:51;26.20;99.90
4451;DHT22;2238;50.180;9.230;2022-07-23T19:09:52;25.20;99.90
4451;DHT22;2238;50.180;9.230;2022-07-23T19:12:52;24.80;99.90
4451;DHT22;2238;50.180;9.230;2022-07-23T19:15:53;24.90;99.90
4451;DHT22;2238;50.180;9.230;2022-07-23T19:18:56;24.80;99.90
4451;DHT22;2238;50.180;9.230;2022-07-23T19:21:56;24.60;99.90
4451;DHT22;2238;50.180;9.230;2022-07-23T19:24:57;25.20;99.90
4451;DHT22;2238;50.180;9.230;2022-07-23T19:27:58;24.10;99.90
4451;DHT22;2238;50.180;9.230;2022-07-23T19:30:59;24.20;99.90
4451;DHT22;2238;50.180;9.230;2022-07-23T19:33:59;23.90;99.90
4451;DHT22;2238;50.180;9.230;2022-07-23T19:37:00;24.00;99.90
4451;DHT22;2238;50.180;9.230;2022-07-23T19:40:01;24.10;99.90
4451;DHT22;2238;50.180;9.230;2022-07-23T19:43:04;23.90;99.90
4451;DHT22;2238;50.180;9.230;2022-07-23T19:46:05;23.70;99.90
4451;DHT22;2238;50.180;9.230;2022-07-23T19:49:06;23.70;99.90
4451;DHT22;2238;50.180;9.230;2022-07-23T19:52:06;25.50;99.90
4451;DHT22;2238;50.180;9.230;2022-07-23T19:55:09;24.00;99.90
4451;DHT22;2238;50.180;9.230;2022-07-23T19:58:10;23.90;99.90
4451;DHT22;2238;50.180;9.230;2022-07-23T20:01:11;23.80;99.90
4451;DHT22;2238;50.180;9.230;2022-07-23T20:04:12;23.40;99.90
4451;DHT22;2238;50.180;9.230;2022-07-23T20:07:12;23.30;99.90
4451;DHT22;2238;50.180;9.230;2022-07-23T20:10:13;23.30;99.90
4451;DHT22;2238;50.180;9.230;2022-07-23T20:13:14;23.30;99.90
4451;DHT22;2238;50.180;9.230;2022-07-23T20:16:15;23.30;99.90
4451;DHT22;2238;50.180;9.230;2022-07-23T20:19:15;23.20;99.90
4451;DHT22;2238;50.180;9.230;2022-07-23T20:22:16;23.10;99.90
4451;DHT22;2238;50.180;9.230;2022-07-23T20:25:17;23.00;99.90
4451;DHT22;2238;50.180;9.230;2022-07-23T20:28:18;22.70;99.90
4451;DHT22;2238;50.180;9.230;2022-07-23T20:31:19;22.70;99.90
4451;DHT22;2238;50.180;9.230;2022-07-23T20:34:20;23.80;99.90
4451;DHT22;2238;50.180;9.230;2022-07-23T20:37:21;24.70;99.90
4451;DHT22;2238;50.180;9.230;2022-07-23T20:40:21;22.70;99.90
4451;DHT22;2238;50.180;9.230;2022-07-23T20:43:22;22.80;99.90
4451;DHT22;2238;50.180;9.230;2022-07-23T20:46:22;23.00;99.90
4451;DHT22;2238;50.180;9.230;2022-07-23T20:49:24;23.00;99.90
4451;DHT22;2238;50.180;9.230;2022-07-23T20:52:24;23.00;99.90
4451;DHT22;2238;50.180;9.230;2022-07-23T20:55:25;22.90;99.90
4451;DHT22;2238;50.180;9.230;2022-07-23T20:58:26;22.80;99.90
4451;DHT22;2238;50.180;9.230;2022-07-23T21:01:27;22.70;99.90
4451;DHT22;2238;50.180;9.230;2022-07-23T21:04:27;22.70;99.90
4451;DHT22;2238;50.180;9.230;2022-07-23T21:07:28;22.70;99.90
4451;DHT22;2238;50.180;9.230;2022-07-23T21:10:29;22.70;99.90
4451;DHT22;2238;50.180;9.230;2022-07-23T21:13:30;22.50;99.90
4451;DHT22;2238;50.180;9.230;2022-07-23T21:16:30;22.40;99.90
4451;DHT22;2238;50.180;9.230;2022-07-23T21:19:31;22.40;99.90
4451;DHT22;2238;50.180;9.230;2022-07-23T21:22:32;22.90;99.90
4451;DHT22;2238;50.180;9.230;2022-07-23T21:25:32;22.30;99.90
4451;DHT22;2238;50.180;9.230;2022-07-23T21:28:33;22.20;99.90
4451;DHT22;2238;50.180;9.230;2022-07-23T21:31:35;22.20;99.90
4451;DHT22;2238;50.180;9.230;2022-07-23T21:34:36;22.10;99.90
4451;DHT22;2238;50.180;9.230;2022-07-23T21:37:36;22.10;99.90
4451;DHT22;2238;50.180;9.230;2022-07-23T21:40:37;22.10;99.90
4451;DHT22;2238;50.180;9.230;2022-07-23T21:43:38;23.50;99.90
4451;DHT22;2238;50.180;9.230;2022-07-23T21:46:38;22.00;99.90
4451;DHT22;2238;50.180;9.230;2022-07-23T21:49:39;23.80;99.90
4451;DHT22;2238;50.180;9.230;2022-07-23T21:52:39;22.10;99.90
4451;DHT22;2238;50.180;9.230;2022-07-23T21:55:40;21.80;99.90
4451;DHT22;2238;50.180;9.230;2022-07-23T21:58:41;21.90;99.90
4451;DHT22;2238;50.180;9.230;2022-07-23T22:01:42;21.80;99.90
4451;DHT22;2238;50.180;9.230;2022-07-23T22:04:42;21.80;99.90
4451;DHT22;2238;50.180;9.230;2022-07-23T22:07:44;23.80;99.90
4451;DHT22;2238;50.180;9.230;2022-07-23T22:10:44;21.80;99.90
4451;DHT22;2238;50.180;9.230;2022-07-23T22:13:45;21.70;99.90
4451;DHT22;2238;50.180;9.230;2022-07-23T22:16:46;21.60;99.90
4451;DHT22;2238;50.180;9.230;2022-07-23T22:19:46;21.60;99.90
4451;DHT22;2238;50.180;9.230;2022-07-23T22:22:49;21.50;99.90
4451;DHT22;2238;50.180;9.230;2022-07-23T22:25:50;21.70;99.90
4451;DHT22;2238;50.180;9.230;2022-07-23T22:28:50;21.70;99.90
4451;DHT22;2238;50.180;9.230;2022-07-23T22:31:51;24.30;99.90
4451;DHT22;2238;50.180;9.230;2022-07-23T22:34:51;21.50;99.90
4451;DHT22;2238;50.180;9.230;2022-07-23T22:37:52;21.50;99.90
4451;DHT22;2238;50.180;9.230;2022-07-23T22:40:52;21.40;99.90
4451;DHT22;2238;50.180;9.230;2022-07-23T22:43:53;21.40;99.90
4451;DHT22;2238;50.180;9.230;2022-07-23T22:46:54;21.40;99.90
4451;DHT22;2238;50.180;9.230;2022-07-23T22:49:54;21.20;99.90
4451;DHT22;2238;50.180;9.230;2022-07-23T22:52:55;21.20;99.90
4451;DHT22;2238;50.180;9.230;2022-07-23T22:55:55;21.00;99.90
4451;DHT22;2238;50.180;9.230;2022-07-23T22:58:56;21.10;99.90
4451;DHT22;2238;50.180;9.230;2022-07-23T23:01:57;21.10;99.90
4451;DHT22;2238;50.180;9.230;2022-07-23T23:04:58;21.10;99.90
4451;DHT22;2238;50.180;9.230;2022-07-23T23:07:58;21.10;99.90
4451;DHT22;2238;50.180;9.230;2022-07-23T23:10:59;21.00;99.90
4451;DHT22;2238;50.180;9.230;2022-07-23T23:14:00;21.00;99.90
4451;DHT22;2238;50.180;9.230;2022-07-23T23:17:00;20.90;99.90
4451;DHT22;2238;50.180;9.230;2022-07-23T23:20:02;21.20;99.90
4451;DHT22;2238;50.180;9.230;2022-07-23T23:23:03;21.00;99.90
4451;DHT22;2238;50.180;9.230;2022-07-23T23:26:03;21.00;99.90
4451;DHT22;2238;50.180;9.230;2022-07-23T23:29:04;21.20;99.90
4451;DHT22;2238;50.180;9.230;2022-07-23T23:32:05;21.00;99.90
4451;DHT22;2238;50.180;9.230;2022-07-23T23:35:06;21.00;99.90
4451;DHT22;2238;50.180;9.230;2022-07-23T23:38:07;20.90;99.90
4451;DHT22;2238;50.180;9.230;2022-07-23T23:41:07;21.00;99.90
4451;DHT22;2238;50.180;9.230;2022-07-23T23:44:08;22.60;99.90
4451;DHT22;2238;50.180;9.230;2022-07-23T23:47:10;21.10;99.90
4451;DHT22;2238;50.180;9.230;2022-07-23T23:50:11;21.10;99.90
4451;DHT22;2238;50.180;9.230;2022-07-23T23:53:12;21.10;99.90
4451;DHT22;2238;50.180;9.230;2022-07-23T23:56:13;22.50;99.90
4451;DHT22;2238;50.180;9.230;2022-07-23T23:59:14;21.10;99.90
